KUIL/UIL METAR and TAF weather

Enter ICAO airport designator
Station Type Date Time Source
KUIL METAR 2019/06/17 04:53 UTC NOAA

KUIL 170453Z AUTO 33005KT 9SM OVC006 12/11 A3010 RMK AO2 SLP194 T01220111


Station Type Date Time Source
KUIL Decoded METAR 2019/06/17 04:53 UTC NOAA

QUILLAYUTE STATE AIRPORT, WA, United States (KUIL) 47-56N 124-34W 54M
Jun 17, 2019 - 12:53 AM EDT / 2019.06.17 0453 UTC
Wind: from the NNW (330 degrees) at 6 MPH (5 KT):0
Visibility: 9 mile(s):0
Sky conditions: overcast
Temperature: 54.0 F (12.2 C)
Dew Point: 52.0 F (11.1 C)
Relative Humidity: 92%
Pressure (altimeter): 30.1 in. Hg (1019 hPa)
ob: KUIL 170453Z AUTO 33005KT 9SM OVC006 12/11 A3010 RMK AO2 SLP194 T01220111
cycle: 5

Station Type Date Time Source
KUIL TAF UTC NOAA

Error!

Example: see airport list